Time,TemperatureF,DewpointF,PressureIn,WindDirection,WindDirectionDegrees,WindSpeedMPH,WindSpeedGustMPH,Humidity,HourlyPrecipIn,Conditions,Clouds,dailyrainin,SoftwareType,DateUTC
2014-07-26 00:02:00,73.9,69.4,29.57,SSW,204,0.0,0.0,86,0.00,,OVC060,0.00,VWS V14.01,2014-07-26 05:02:00,
2014-07-26 00:07:00,73.9,69.4,29.57,SSW,204,0.0,0.0,86,0.00,,OVC060,0.00,VWS V14.01,2014-07-26 05:07:00,
2014-07-26 00:12:00,73.9,69.4,29.57,SSW,204,0.0,0.0,86,0.00,,OVC060,0.00,VWS V14.01,2014-07-26 05:12:00,
2014-07-26 00:17:00,73.7,69.6,29.57,SSW,198,3.0,3.0,87,0.00,,OVC060,0.00,VWS V14.01,2014-07-26 05:17:00,
2014-07-26 00:22:00,73.5,69.4,29.57,SSW,198,0.0,3.0,87,0.00,,OVC060,0.00,VWS V14.01,2014-07-26 05:22:00,
2014-07-26 00:27:00,73.5,69.4,29.57,SSW,198,0.0,3.0,87,0.00,,OVC060,0.00,VWS V14.01,2014-07-26 05:27:00,
2014-07-26 00:32:00,73.3,69.2,29.56,South,190,0.0,2.0,87,0.00,,OVC060,0.00,VWS V14.01,2014-07-26 05:32:00,
2014-07-26 00:37:00,73.2,69.4,29.56,South,190,0.0,2.0,88,0.00,,OVC060,0.00,VWS V14.01,2014-07-26 05:37:00,
2014-07-26 00:42:00,73.0,69.2,29.56,South,188,0.0,2.0,88,0.00,,OVC060,0.00,VWS V14.01,2014-07-26 05:42:00,
2014-07-26 00:47:00,73.0,69.2,29.56,South,188,0.0,2.0,88,0.00,,OVC060,0.00,VWS V14.01,2014-07-26 05:47:00,
2014-07-26 00:52:00,72.8,69.0,29.56,South,190,0.0,2.0,88,0.00,,OVC060,0.00,VWS V14.01,2014-07-26 05:52:00,
2014-07-26 00:57:00,72.7,69.3,29.56,South,190,0.0,2.0,89,0.00,,OVC060,0.00,VWS V14.01,2014-07-26 05:57:00,
2014-07-26 01:02:00,72.7,69.3,29.57,South,184,0.0,1.0,89,0.00,,BKN060,0.00,VWS V14.01,2014-07-26 06:02:00,
2014-07-26 01:07:00,72.7,69.3,29.57,South,184,0.0,2.0,89,0.00,,BKN060,0.00,VWS V14.01,2014-07-26 06:07:00,
2014-07-26 01:12:00,72.5,69.1,29.57,South,184,0.0,2.0,89,0.00,,BKN060,0.00,VWS V14.01,2014-07-26 06:12:00,
2014-07-26 01:17:00,72.5,69.1,29.57,South,184,0.0,2.0,89,0.00,,BKN060,0.00,VWS V14.01,2014-07-26 06:17:00,
2014-07-26 01:22:00,72.5,69.1,29.57,South,184,0.0,2.0,89,0.00,,BKN060,0.00,VWS V14.01,2014-07-26 06:22:00,
2014-07-26 01:27:00,72.5,69.4,29.57,South,184,0.0,2.0,90,0.00,,BKN060,0.00,VWS V14.01,2014-07-26 06:27:00,
2014-07-26 01:32:00,72.5,69.4,29.57,South,184,0.0,0.0,90,0.00,,BKN060,0.00,VWS V14.01,2014-07-26 06:32:00,
2014-07-26 01:37:00,72.5,69.4,29.57,South,184,0.0,0.0,90,0.00,,BKN060,0.00,VWS V14.01,2014-07-26 06:37:00,
2014-07-26 01:42:00,72.5,69.4,29.57,South,184,0.0,1.0,90,0.00,,BKN060,0.00,VWS V14.01,2014-07-26 06:42:00,
2014-07-26 01:47:00,72.3,69.2,29.56,South,184,0.0,1.0,90,0.00,,BKN060,0.00,VWS V14.01,2014-07-26 06:47:00,
2014-07-26 01:52:00,72.3,69.2,29.56,South,182,0.0,2.0,90,0.00,,BKN060,0.00,VWS V14.01,2014-07-26 06:52:00,
2014-07-26 01:57:00,72.3,69.2,29.56,South,181,0.0,2.0,90,0.00,,BKN060,0.00,VWS V14.01,2014-07-26 06:57:00,
2014-07-26 02:02:00,72.1,69.3,29.56,South,181,0.0,0.0,91,0.00,,BKN036,0.00,VWS V14.01,2014-07-26 07:02:00,
2014-07-26 02:07:00,72.0,69.2,29.56,South,171,0.0,2.0,91,0.00,,BKN036,0.00,VWS V14.01,2014-07-26 07:07:00,
2014-07-26 02:12:00,72.0,69.2,29.56,South,170,2.0,2.0,91,0.00,,BKN036,0.00,VWS V14.01,2014-07-26 07:12:00,
2014-07-26 02:17:00,72.0,69.2,29.56,South,170,0.0,2.0,91,0.00,,BKN036,0.00,VWS V14.01,2014-07-26 07:17:00,
2014-07-26 02:22:00,72.0,69.2,29.56,South,170,0.0,2.0,91,0.00,,BKN036,0.00,VWS V14.01,2014-07-26 07:22:00,
2014-07-26 02:27:00,72.0,69.2,29.56,South,170,0.0,2.0,91,0.00,,BKN036,0.00,VWS V14.01,2014-07-26 07:27:00,
2014-07-26 02:32:00,72.1,69.3,29.56,South,170,0.0,0.0,91,0.00,,BKN036,0.00,VWS V14.01,2014-07-26 07:32:00,
2014-07-26 02:37:00,72.1,69.3,29.56,South,170,0.0,0.0,91,0.00,,BKN036,0.00,VWS V14.01,2014-07-26 07:37:00,
2014-07-26 02:42:00,72.1,69.3,29.56,South,170,0.0,1.0,91,0.00,,BKN036,0.00,VWS V14.01,2014-07-26 07:42:00,
2014-07-26 02:47:00,72.3,69.5,29.56,South,170,0.0,1.0,91,0.00,,BKN036,0.00,VWS V14.01,2014-07-26 07:47:00,
2014-07-26 02:52:00,72.3,69.5,29.56,South,170,0.0,1.0,91,0.00,,BKN036,0.00,VWS V14.01,2014-07-26 07:52:00,
2014-07-26 02:57:00,72.3,69.5,29.56,South,170,0.0,1.0,91,0.00,,BKN036,0.00,VWS V14.01,2014-07-26 07:57:00,
2014-07-26 03:02:00,72.3,69.5,29.56,South,170,0.0,2.0,91,0.00,,OVC035,0.00,VWS V14.01,2014-07-26 08:02:00,
2014-07-26 03:07:00,72.3,69.5,29.56,South,170,0.0,2.0,91,0.00,,OVC035,0.00,VWS V14.01,2014-07-26 08:07:00,
2014-07-26 03:12:00,72.3,69.5,29.56,South,170,0.0,2.0,91,0.00,,OVC035,0.00,VWS V14.01,2014-07-26 08:12:00,
2014-07-26 03:17:00,72.1,69.3,29.56,South,170,0.0,2.0,91,0.00,,OVC035,0.00,VWS V14.01,2014-07-26 08:17:00,
2014-07-26 03:22:00,72.1,69.3,29.56,South,170,0.0,2.0,91,0.00,,OVC035,0.00,VWS V14.01,2014-07-26 08:22:00,
2014-07-26 03:27:00,72.1,69.7,29.56,SSW,212,0.0,2.0,92,0.00,,OVC035,0.00,VWS V14.01,2014-07-26 08:27:00,
2014-07-26 03:32:00,72.1,69.7,29.57,West,270,1.0,5.0,92,0.00,,OVC035,0.00,VWS V14.01,2014-07-26 08:32:00,
2014-07-26 03:37:00,72.3,69.8,29.57,West,270,0.0,5.0,92,0.00,,OVC035,0.00,VWS V14.01,2014-07-26 08:37:00,
2014-07-26 03:42:00,72.3,69.8,29.57,West,267,0.0,5.0,92,0.00,,OVC035,0.00,VWS V14.01,2014-07-26 08:42:00,
2014-07-26 03:47:00,72.3,69.8,29.57,West,267,0.0,5.0,92,0.00,,OVC035,0.00,VWS V14.01,2014-07-26 08:47:00,
2014-07-26 03:52:00,72.3,69.8,29.57,West,271,0.0,5.0,92,0.00,,OVC035,0.00,VWS V14.01,2014-07-26 08:52:00,
2014-07-26 03:57:00,72.1,69.7,29.57,West,271,0.0,5.0,92,0.00,,OVC035,0.00,VWS V14.01,2014-07-26 08:57:00,
2014-07-26 04:02:00,72.1,69.7,29.56,West,270,0.0,0.0,92,0.00,,OVC017,0.00,VWS V14.01,2014-07-26 09:02:00,
2014-07-26 04:07:00,72.1,69.7,29.56,West,270,0.0,1.0,92,0.00,,OVC017,0.00,VWS V14.01,2014-07-26 09:07:00,
2014-07-26 04:12:00,72.1,69.7,29.56,West,267,1.0,2.0,92,0.00,,OVC017,0.00,VWS V14.01,2014-07-26 09:12:00,
2014-07-26 04:17:00,72.1,69.7,29.57,West,267,0.0,3.0,92,0.00,,OVC017,0.00,VWS V14.01,2014-07-26 09:17:00,
2014-07-26 04:22:00,72.0,69.6,29.57,West,267,1.0,3.0,92,0.00,,OVC017,0.00,VWS V14.01,2014-07-26 09:22:00,
2014-07-26 04:27:00,72.0,69.6,29.57,West,270,1.0,3.0,92,0.00,,OVC017,0.00,VWS V14.01,2014-07-26 09:27:00,
2014-07-26 04:32:00,72.0,69.6,29.56,West,270,0.0,0.0,92,0.00,,OVC017,0.00,VWS V14.01,2014-07-26 09:32:00,
2014-07-26 04:37:00,71.8,69.3,29.56,West,270,0.0,0.0,92,0.00,,OVC017,0.00,VWS V14.01,2014-07-26 09:37:00,
2014-07-26 04:42:00,71.6,69.2,29.56,West,270,0.0,0.0,92,0.00,,OVC017,0.00,VWS V14.01,2014-07-26 09:42:00,
2014-07-26 04:47:00,71.3,69.2,29.56,West,270,0.0,0.0,93,0.00,,SCT025,0.00,VWS V14.01,2014-07-26 09:47:00,
2014-07-26 04:52:00,71.1,69.0,29.56,West,270,0.0,0.0,93,0.00,,SCT025,0.00,VWS V14.01,2014-07-26 09:52:00,
2014-07-26 04:57:00,70.9,68.8,29.56,West,270,0.0,0.0,93,0.00,,SCT025,0.00,VWS V14.01,2014-07-26 09:57:00,
2014-07-26 05:02:00,70.8,69.0,29.56,West,270,0.0,0.0,94,0.00,,FEW025,0.00,VWS V14.01,2014-07-26 10:02:00,
2014-07-26 05:07:00,70.8,69.0,29.56,West,270,0.0,0.0,94,0.00,,FEW025,0.00,VWS V14.01,2014-07-26 10:07:00,
2014-07-26 05:12:00,70.6,68.8,29.56,West,270,0.0,0.0,94,0.00,,FEW025,0.00,VWS V14.01,2014-07-26 10:12:00,
2014-07-26 05:17:00,70.4,68.6,29.57,West,270,0.0,0.0,94,0.00,,FEW025,0.00,VWS V14.01,2014-07-26 10:17:00,
2014-07-26 05:22:00,70.3,68.5,29.57,West,270,0.0,0.0,94,0.00,,FEW025,0.00,VWS V14.01,2014-07-26 10:22:00,
2014-07-26 05:27:00,69.9,68.1,29.57,West,270,0.0,0.0,94,0.00,,FEW025,0.00,VWS V14.01,2014-07-26 10:27:00,
2014-07-26 05:32:00,69.8,68.3,29.57,West,270,0.0,0.0,95,0.00,,FEW025,0.00,VWS V14.01,2014-07-26 10:32:00,
2014-07-26 05:37:00,69.8,68.3,29.57,West,270,0.0,0.0,95,0.00,,FEW025,0.00,VWS V14.01,2014-07-26 10:37:00,
2014-07-26 05:42:00,69.6,68.1,29.57,West,270,0.0,0.0,95,0.00,,FEW025,0.00,VWS V14.01,2014-07-26 10:42:00,
2014-07-26 05:47:00,69.6,68.1,29.57,West,270,0.0,0.0,95,0.00,,FEW025,0.00,VWS V14.01,2014-07-26 10:47:00,
2014-07-26 05:52:00,69.4,67.9,29.57,West,270,0.0,0.0,95,0.00,,FEW025,0.00,VWS V14.01,2014-07-26 10:52:00,
2014-07-26 05:57:00,69.4,68.2,29.57,West,270,0.0,0.0,96,0.00,,FEW025,0.00,VWS V14.01,2014-07-26 10:57:00,
2014-07-26 06:02:00,69.3,67.8,29.58,West,270,0.0,0.0,95,0.00,,,0.00,VWS V14.01,2014-07-26 11:02:00,
2014-07-26 06:07:00,69.1,67.6,29.58,West,270,0.0,0.0,95,0.00,,,0.00,VWS V14.01,2014-07-26 11:07:00,
2014-07-26 06:12:00,68.9,67.7,29.58,West,270,0.0,0.0,96,0.00,,,0.00,VWS V14.01,2014-07-26 11:12:00,
2014-07-26 06:17:00,68.9,67.7,29.57,West,270,0.0,0.0,96,0.00,,,0.00,VWS V14.01,2014-07-26 11:17:00,
2014-07-26 06:22:00,69.1,67.9,29.57,West,270,0.0,0.0,96,0.00,,,0.00,VWS V14.01,2014-07-26 11:22:00,
2014-07-26 06:27:00,69.3,68.1,29.57,West,270,0.0,0.0,96,0.00,,,0.00,VWS V14.01,2014-07-26 11:27:00,
2014-07-26 06:32:00,69.3,68.1,29.57,West,270,0.0,0.0,96,0.00,,,0.00,VWS V14.01,2014-07-26 11:32:00,
2014-07-26 06:37:00,69.4,68.2,29.57,West,270,0.0,0.0,96,0.00,,,0.00,VWS V14.01,2014-07-26 11:37:00,
2014-07-26 06:42:00,69.3,68.1,29.57,West,270,0.0,0.0,96,0.00,,,0.00,VWS V14.01,2014-07-26 11:42:00,
2014-07-26 06:47:00,69.3,68.1,29.58,West,270,0.0,0.0,96,0.00,,,0.00,VWS V14.01,2014-07-26 11:47:00,
2014-07-26 06:52:00,69.1,67.9,29.58,West,270,0.0,0.0,96,0.00,,,0.00,VWS V14.01,2014-07-26 11:52:00,
2014-07-26 06:57:00,69.1,67.9,29.58,West,270,0.0,0.0,96,0.00,,,0.00,VWS V14.01,2014-07-26 11:57:00,
2014-07-26 07:02:00,69.1,67.9,29.58,West,270,0.0,0.0,96,0.00,,BKN300,0.00,VWS V14.01,2014-07-26 12:02:00,
2014-07-26 07:07:00,69.3,68.1,29.58,West,270,0.0,0.0,96,0.00,,BKN300,0.00,VWS V14.01,2014-07-26 12:07:00,
2014-07-26 07:12:00,69.4,68.2,29.58,West,270,0.0,0.0,96,0.00,,BKN300,0.00,VWS V14.01,2014-07-26 12:12:00,
2014-07-26 07:17:00,69.8,68.6,29.59,West,270,0.0,0.0,96,0.00,,BKN300,0.00,VWS V14.01,2014-07-26 12:17:00,
2014-07-26 07:22:00,69.9,68.7,29.59,West,270,0.0,0.0,96,0.00,,BKN300,0.00,VWS V14.01,2014-07-26 12:22:00,
2014-07-26 07:27:00,69.9,68.7,29.59,West,270,0.0,0.0,96,0.00,,BKN300,0.00,VWS V14.01,2014-07-26 12:27:00,
2014-07-26 07:32:00,70.3,69.4,29.60,West,270,0.0,0.0,97,0.00,,BKN300,0.00,VWS V14.01,2014-07-26 12:32:00,
2014-07-26 07:37:00,70.3,69.4,29.60,West,270,0.0,0.0,97,0.00,,BKN300,0.00,VWS V14.01,2014-07-26 12:37:00,
2014-07-26 07:42:00,70.4,69.5,29.60,West,270,0.0,0.0,97,0.00,,BKN300,0.00,VWS V14.01,2014-07-26 12:42:00,
2014-07-26 07:47:00,70.8,69.9,29.60,West,270,0.0,0.0,97,0.00,,BKN300,0.00,VWS V14.01,2014-07-26 12:47:00,
2014-07-26 07:52:00,70.9,70.0,29.60,West,270,0.0,0.0,97,0.00,,BKN300,0.00,VWS V14.01,2014-07-26 12:52:00,
2014-07-26 07:57:00,71.3,70.1,29.60,West,270,1.0,3.0,96,0.00,,BKN300,0.00,VWS V14.01,2014-07-26 12:57:00,
2014-07-26 08:02:00,71.8,70.6,29.61,WSW,249,1.0,3.0,96,0.00,,BKN300,0.00,VWS V14.01,2014-07-26 13:02:00,
2014-07-26 08:07:00,72.1,70.9,29.61,SSE,151,0.0,3.0,96,0.00,,BKN300,0.00,VWS V14.01,2014-07-26 13:07:00,
2014-07-26 08:12:00,72.5,71.3,29.61,SSE,151,2.0,3.0,96,0.00,,BKN300,0.00,VWS V14.01,2014-07-26 13:12:00,
2014-07-26 08:17:00,72.7,71.2,29.61,SSE,151,0.0,3.0,95,0.00,,BKN300,0.00,VWS V14.01,2014-07-26 13:17:00,
2014-07-26 08:22:00,72.8,71.3,29.61,SSE,151,0.0,3.0,95,0.00,,BKN300,0.00,VWS V14.01,2014-07-26 13:22:00,
2014-07-26 08:27:00,72.8,71.0,29.61,SW,221,0.0,3.0,94,0.00,,BKN300,0.00,VWS V14.01,2014-07-26 13:27:00,
2014-07-26 08:32:00,72.8,71.0,29.59,SW,221,0.0,0.0,94,0.00,,BKN300,0.00,VWS V14.01,2014-07-26 13:32:00,
2014-07-26 08:37:00,73.0,70.9,29.59,SW,221,0.0,0.0,93,0.00,,BKN300,0.00,VWS V14.01,2014-07-26 13:37:00,
2014-07-26 08:42:00,73.0,70.9,29.59,SW,221,0.0,0.0,93,0.00,,BKN300,0.00,VWS V14.01,2014-07-26 13:42:00,
2014-07-26 08:47:00,73.2,70.7,29.59,SW,235,0.0,0.0,92,0.00,,BKN300,0.00,VWS V14.01,2014-07-26 13:47:00,
2014-07-26 08:52:00,73.3,70.5,29.59,SW,235,0.0,0.0,91,0.00,,BKN300,0.00,VWS V14.01,2014-07-26 13:52:00,
2014-07-26 08:57:00,73.9,70.8,29.59,SW,235,0.0,1.0,90,0.00,,BKN300,0.00,VWS V14.01,2014-07-26 13:57:00,
2014-07-26 09:02:00,74.4,70.6,29.58,SW,233,0.0,2.0,88,0.00,,SCT300,0.00,VWS V14.01,2014-07-26 14:02:00,
2014-07-26 09:07:00,74.7,70.6,29.58,SW,233,0.0,2.0,87,0.00,,SCT300,0.00,VWS V14.01,2014-07-26 14:07:00,
2014-07-26 09:12:00,75.3,70.5,29.58,SW,233,0.0,2.0,85,0.00,,SCT300,0.00,VWS V14.01,2014-07-26 14:12:00,
2014-07-26 09:17:00,75.6,70.1,29.59,SW,233,0.0,2.0,83,0.00,,SCT300,0.00,VWS V14.01,2014-07-26 14:17:00,
2014-07-26 09:22:00,75.8,70.3,29.59,SW,233,0.0,2.0,83,0.00,,SCT300,0.00,VWS V14.01,2014-07-26 14:22:00,
2014-07-26 09:27:00,75.6,70.1,29.59,SW,233,0.0,2.0,83,0.00,,SCT300,0.00,VWS V14.01,2014-07-26 14:27:00,
2014-07-26 09:32:00,75.6,70.1,29.60,SW,233,0.0,0.0,83,0.00,,SCT300,0.00,VWS V14.01,2014-07-26 14:32:00,
2014-07-26 09:37:00,76.0,70.5,29.60,SW,233,0.0,0.0,83,0.00,,SCT300,0.00,VWS V14.01,2014-07-26 14:37:00,
2014-07-26 09:42:00,76.7,70.1,29.60,SW,233,0.0,0.0,80,0.00,,SCT300,0.00,VWS V14.01,2014-07-26 14:42:00,
2014-07-26 09:47:00,77.4,70.4,29.59,SW,219,0.0,1.0,79,0.00,,SCT300,0.00,VWS V14.01,2014-07-26 14:47:00,
2014-07-26 09:52:00,77.9,70.1,29.59,NE,54,3.0,6.0,77,0.00,,SCT300,0.00,VWS V14.01,2014-07-26 14:52:00,
2014-07-26 09:57:00,77.9,69.7,29.59,NE,54,0.0,6.0,76,0.00,,SCT300,0.00,VWS V14.01,2014-07-26 14:57:00,
2014-07-26 10:02:00,77.9,70.1,29.57,ENE,65,2.0,6.0,77,0.00,,SCT300,0.00,VWS V14.01,2014-07-26 15:02:00,
2014-07-26 10:07:00,78.6,70.4,29.57,ENE,64,0.0,6.0,76,0.00,,SCT300,0.00,VWS V14.01,2014-07-26 15:07:00,
2014-07-26 10:12:00,79.2,69.8,29.57,ENE,60,4.0,6.0,73,0.00,,SCT300,0.00,VWS V14.01,2014-07-26 15:12:00,
2014-07-26 10:17:00,78.6,69.6,29.57,NE,43,0.0,6.0,74,0.00,,SCT300,0.00,VWS V14.01,2014-07-26 15:17:00,
2014-07-26 10:22:00,78.3,70.5,29.57,NE,44,1.0,6.0,77,0.00,,SCT300,0.00,VWS V14.01,2014-07-26 15:22:00,
2014-07-26 10:27:00,78.5,69.1,29.57,ENE,74,1.0,6.0,73,0.00,,SCT300,0.00,VWS V14.01,2014-07-26 15:27:00,
2014-07-26 10:32:00,78.8,68.6,29.57,ENE,74,0.0,2.0,71,0.00,,SCT300,0.00,VWS V14.01,2014-07-26 15:32:00,
2014-07-26 10:37:00,79.4,68.8,29.57,ENE,74,0.0,2.0,70,0.00,,SCT300,0.00,VWS V14.01,2014-07-26 15:37:00,
2014-07-26 10:42:00,79.2,69.8,29.57,ENE,74,0.0,2.0,73,0.00,,SCT300,0.00,VWS V14.01,2014-07-26 15:42:00,
2014-07-26 10:47:00,79.2,68.6,29.58,ENE,74,0.0,2.0,70,0.00,,SCT300,0.00,VWS V14.01,2014-07-26 15:47:00,
2014-07-26 10:52:00,79.2,68.2,29.58,ENE,74,0.0,2.0,69,0.00,,SCT300,0.00,VWS V14.01,2014-07-26 15:52:00,
2014-07-26 10:57:00,79.2,68.2,29.58,ENE,74,0.0,2.0,69,0.00,,SCT300,0.00,VWS V14.01,2014-07-26 15:57:00,
2014-07-26 11:02:00,79.6,69.4,29.59,ENE,74,0.0,0.0,71,0.00,,BKN250,0.00,VWS V14.01,2014-07-26 16:02:00,
2014-07-26 11:07:00,79.6,69.4,29.59,East,79,0.0,2.0,71,0.00,,BKN250,0.00,VWS V14.01,2014-07-26 16:07:00,
2014-07-26 11:12:00,79.4,68.8,29.59,East,79,3.0,3.0,70,0.00,,BKN250,0.00,VWS V14.01,2014-07-26 16:12:00,
2014-07-26 11:17:00,79.4,69.6,29.60,East,79,0.0,3.0,72,0.00,,BKN250,0.00,VWS V14.01,2014-07-26 16:17:00,
2014-07-26 11:22:00,79.6,69.0,29.60,East,79,0.0,3.0,70,0.00,,BKN250,0.00,VWS V14.01,2014-07-26 16:22:00,
2014-07-26 11:27:00,79.6,68.1,29.60,East,79,0.0,3.0,68,0.00,,BKN250,0.00,VWS V14.01,2014-07-26 16:27:00,
2014-07-26 11:32:00,79.8,68.7,29.59,East,79,0.0,0.0,69,0.00,,BKN250,0.00,VWS V14.01,2014-07-26 16:32:00,
2014-07-26 11:37:00,79.8,69.2,29.59,East,79,0.0,1.0,70,0.00,,BKN250,0.00,VWS V14.01,2014-07-26 16:37:00,
2014-07-26 11:42:00,79.6,69.4,29.59,East,79,2.0,3.0,71,0.00,,BKN250,0.00,VWS V14.01,2014-07-26 16:42:00,
2014-07-26 11:47:00,78.8,69.0,29.61,WSW,252,1.0,5.0,72,0.00,,BKN250,0.00,VWS V14.01,2014-07-26 16:47:00,
2014-07-26 11:52:00,78.3,69.7,29.61,WSW,253,2.0,5.0,75,0.00,,BKN250,0.00,VWS V14.01,2014-07-26 16:52:00,
2014-07-26 11:57:00,78.1,69.5,29.61,WSW,253,3.0,5.0,75,0.00,,BKN250,0.00,VWS V14.01,2014-07-26 16:57:00,
2014-07-26 12:02:00,78.1,69.9,29.61,WSW,246,1.0,6.0,76,0.00,,BKN250,0.00,VWS V14.01,2014-07-26 17:02:00,
2014-07-26 12:07:00,77.9,69.7,29.61,WSW,247,1.0,6.0,76,0.00,,BKN250,0.00,VWS V14.01,2014-07-26 17:07:00,
2014-07-26 12:12:00,77.9,70.1,29.61,SW,230,1.0,6.0,77,0.00,,BKN250,0.00,VWS V14.01,2014-07-26 17:12:00,
2014-07-26 12:17:00,77.7,70.3,29.62,WSW,245,2.0,6.0,78,0.00,,BKN250,0.00,VWS V14.01,2014-07-26 17:17:00,
2014-07-26 12:22:00,77.7,69.9,29.62,WSW,242,2.0,6.0,77,0.00,,BKN250,0.00,VWS V14.01,2014-07-26 17:22:00,
2014-07-26 12:27:00,77.7,70.3,29.62,WSW,242,0.0,6.0,78,0.00,,BKN250,0.00,VWS V14.01,2014-07-26 17:27:00,
2014-07-26 12:32:00,77.7,70.3,29.61,WSW,242,0.0,0.0,78,0.00,,BKN250,0.00,VWS V14.01,2014-07-26 17:32:00,
2014-07-26 12:37:00,77.6,69.8,29.61,SW,232,3.0,5.0,77,0.00,,BKN250,0.00,VWS V14.01,2014-07-26 17:37:00,
2014-07-26 12:42:00,77.4,70.0,29.61,WSW,246,0.0,6.0,78,0.00,,BKN250,0.00,VWS V14.01,2014-07-26 17:42:00,
2014-07-26 12:47:00,77.4,70.4,29.61,WSW,243,0.0,6.0,79,0.00,,BKN250,0.00,VWS V14.01,2014-07-26 17:47:00,
2014-07-26 12:52:00,77.2,70.6,29.61,WSW,242,1.0,6.0,80,0.00,,BKN250,0.00,VWS V14.01,2014-07-26 17:52:00,
2014-07-26 12:57:00,77.2,70.2,29.61,SE,130,0.0,8.0,79,0.00,,BKN250,0.00,VWS V14.01,2014-07-26 17:57:00,
2014-07-26 13:02:00,77.2,70.6,29.60,SW,228,0.0,4.0,80,0.00,,BKN200,0.00,VWS V14.01,2014-07-26 18:02:00,
2014-07-26 13:08:00,77.2,70.9,29.60,West,260,0.0,6.0,81,0.00,,BKN200,0.00,VWS V14.01,2014-07-26 18:08:00,
2014-07-26 13:13:00,77.2,70.9,29.60,SW,222,3.0,7.0,81,0.00,,BKN200,0.00,VWS V14.01,2014-07-26 18:13:00,
2014-07-26 13:18:00,77.6,71.3,29.62,South,185,2.0,7.0,81,0.00,,BKN200,0.00,VWS V14.01,2014-07-26 18:18:00,
2014-07-26 13:23:00,78.3,71.3,29.62,South,187,1.0,8.0,79,0.00,,BKN200,0.00,VWS V14.01,2014-07-26 18:23:00,
2014-07-26 13:28:00,79.2,71.8,29.62,West,271,0.0,8.0,78,0.00,,BKN200,0.00,VWS V14.01,2014-07-26 18:28:00,
2014-07-26 13:33:00,79.9,71.7,29.61,WSW,245,2.0,7.0,76,0.00,,BKN200,0.00,VWS V14.01,2014-07-26 18:33:00,
2014-07-26 13:38:00,79.9,70.9,29.61,WSW,246,3.0,12.0,74,0.00,,BKN200,0.00,VWS V14.01,2014-07-26 18:38:00,
2014-07-26 13:43:00,79.9,71.3,29.61,ESE,122,3.0,12.0,75,0.00,,BKN200,0.00,VWS V14.01,2014-07-26 18:43:00,
2014-07-26 13:48:00,79.6,71.4,29.61,WSW,239,1.0,12.0,76,0.00,,BKN200,0.00,VWS V14.01,2014-07-26 18:48:00,
2014-07-26 13:53:00,79.4,70.8,29.61,West,270,0.0,12.0,75,0.00,,BKN200,0.00,VWS V14.01,2014-07-26 18:53:00,
2014-07-26 13:58:00,79.6,70.6,29.61,West,270,2.0,12.0,74,0.00,,BKN200,0.00,VWS V14.01,2014-07-26 18:58:00,
2014-07-26 14:03:00,79.8,70.0,29.60,SSW,211,1.0,6.0,72,0.00,,BKN250,0.00,VWS V14.01,2014-07-26 19:03:00,
2014-07-26 14:08:00,80.1,69.4,29.60,SSE,161,0.0,7.0,70,0.00,,BKN250,0.00,VWS V14.01,2014-07-26 19:08:00,
2014-07-26 14:13:00,80.1,69.9,29.60,WSW,256,1.0,8.0,71,0.00,,BKN250,0.00,VWS V14.01,2014-07-26 19:13:00,
2014-07-26 14:18:00,80.3,69.6,29.60,WSW,249,5.0,8.0,70,0.00,,BKN250,0.00,VWS V14.01,2014-07-26 19:18:00,
2014-07-26 14:23:00,80.5,69.8,29.60,WSW,254,1.0,8.0,70,0.00,,BKN250,0.00,VWS V14.01,2014-07-26 19:23:00,
2014-07-26 14:28:00,80.5,68.5,29.60,SW,235,0.0,10.0,67,0.00,,BKN250,0.00,VWS V14.01,2014-07-26 19:28:00,
2014-07-26 14:33:00,80.5,69.4,29.59,SW,233,3.0,8.0,69,0.00,,BKN250,0.00,VWS V14.01,2014-07-26 19:33:00,
2014-07-26 14:38:00,80.7,70.4,29.59,West,262,2.0,8.0,71,0.00,,BKN250,0.00,VWS V14.01,2014-07-26 19:38:00,
2014-07-26 14:43:00,81.6,69.6,29.59,WSW,257,5.0,8.0,67,0.00,,BKN250,0.00,VWS V14.01,2014-07-26 19:43:00,
2014-07-26 14:48:00,81.6,68.7,29.58,West,260,3.0,8.0,65,0.00,,BKN250,0.00,VWS V14.01,2014-07-26 19:48:00,
2014-07-26 14:53:00,81.6,67.3,29.58,SW,236,1.0,8.0,62,0.00,,BKN250,0.00,VWS V14.01,2014-07-26 19:53:00,
2014-07-26 14:58:00,82.4,68.1,29.58,SW,236,6.0,8.0,62,0.00,,BKN250,0.00,VWS V14.01,2014-07-26 19:58:00,
2014-07-26 15:03:00,82.0,68.2,29.58,West,280,4.0,8.0,63,0.00,,SCT300,0.00,VWS V14.01,2014-07-26 20:03:00,
2014-07-26 15:08:00,82.4,68.1,29.58,West,277,3.0,8.0,62,0.00,,SCT300,0.00,VWS V14.01,2014-07-26 20:08:00,